Zoetermeer, Netherlands
Current Conditions -  °F | °C
As of 2:55 PM on Saturday 22 Nov 2014 (Local Time) from EHRD Reporting Station
Clear Clear  
Wind Chill: 55°   Ceiling: Unl
Heat Index: 55°   Visibility: 6mi
Dew Point: 50°   Wind: 7mph
Humidity: 82%   Direction: 180°S
Pressure: 29.97"   Gusts: NA
Location:  52.06°N, 4.49°E
Report Text: EHRD 221355Z AUTO 18006KT 150V220 9999 NSC 13/10 Q1015 NOSIG
Loading
Personal Weather Stations






























Interactive Weather Map New forecast layout! Learn more

10-Day Weather Forecast

Advertisements
Track Severe Weather on mobile